createdAt,value
2023-01-19T00:01:00.449Z,90.93
2023-01-19T00:04:04.688Z,91.34
2023-01-19T00:07:09.992Z,90.48
2023-01-19T00:10:13.157Z,90.76
2023-01-19T00:13:16.314Z,90.63
2023-01-19T00:16:23.009Z,90.56
2023-01-19T00:19:25.655Z,91.18
2023-01-19T00:22:28.800Z,90.84
2023-01-19T00:25:31.641Z,91.47
2023-01-19T00:28:35.019Z,90.60
2023-01-19T00:31:38.091Z,90.79
2023-01-19T00:34:42.734Z,90.67
2023-01-19T00:37:46.176Z,91.06
2023-01-19T00:40:50.569Z,90.50
2023-01-19T00:43:55.069Z,90.19
2023-01-19T00:46:58.162Z,90.47
2023-01-19T00:50:00.807Z,90.22
2023-01-19T00:53:03.957Z,89.80
2023-01-19T00:56:07.098Z,90.12
2023-01-19T00:59:11.030Z,90.68
2023-01-19T01:02:13.711Z,90.84
2023-01-19T01:05:17.843Z,90.60
2023-01-19T01:08:20.489Z,90.66
2023-01-19T01:11:23.720Z,90.84
2023-01-19T01:14:26.288Z,90.26
2023-01-19T01:17:29.465Z,89.44
2023-01-19T01:20:34.526Z,89.63
2023-01-19T01:23:39.767Z,89.19
2023-01-19T01:26:42.280Z,88.91
2023-01-19T01:29:48.553Z,88.87
2023-01-19T01:32:51.125Z,87.99
2023-01-19T01:35:54.321Z,88.98
2023-01-19T01:38:57.314Z,89.82
2023-01-19T01:42:00.350Z,89.67
2023-01-19T01:45:07.709Z,89.62
2023-01-19T01:48:18.093Z,90.06
2023-01-19T01:51:46.940Z,89.76
2023-01-19T01:54:50.165Z,89.51
2023-01-19T01:58:01.375Z,89.09
2023-01-19T02:01:24.653Z,89.40
2023-01-19T02:04:32.288Z,89.62
2023-01-19T02:08:15.851Z,89.92
2023-01-19T02:11:37.459Z,89.40
2023-01-19T02:14:40.243Z,89.42
2023-01-19T02:17:43.558Z,88.62
2023-01-19T02:21:08.517Z,88.07
2023-01-19T02:24:11.681Z,88.61
2023-01-19T02:27:15.883Z,88.33
2023-01-19T02:30:19.268Z,88.57
2023-01-19T02:33:22.271Z,88.64
2023-01-19T02:36:30.573Z,88.55
2023-01-19T02:39:39.347Z,88.24
2023-01-19T02:42:53.251Z,88.44
2023-01-19T02:45:56.368Z,87.88
2023-01-19T02:49:00.501Z,88.11
2023-01-19T02:52:04.312Z,86.85
2023-01-19T02:55:22.406Z,86.15
2023-01-19T02:58:44.211Z,87.04
2023-01-19T03:01:54.363Z,87.65
2023-01-19T03:05:17.508Z,87.11
2023-01-19T03:08:26.296Z,87.52
2023-01-19T03:11:35.214Z,87.23
2023-01-19T03:14:43.301Z,86.96
2023-01-19T03:17:49.492Z,86.40
2023-01-19T03:20:55.752Z,86.34
2023-01-19T03:24:03.609Z,86.36
2023-01-19T03:27:30.144Z,86.78
2023-01-19T03:30:40.022Z,87.22
2023-01-19T03:33:48.820Z,86.40
2023-01-19T03:36:59.523Z,86.71
2023-01-19T03:40:02.273Z,85.72
2023-01-19T03:43:06.414Z,86.10
2023-01-19T03:46:11.050Z,86.57
2023-01-19T03:49:14.143Z,86.98
2023-01-19T03:52:17.003Z,86.89
2023-01-19T03:55:19.791Z,86.71
2023-01-19T03:58:22.668Z,86.38
2023-01-19T04:01:25.640Z,86.75
2023-01-19T04:04:28.560Z,86.90
2023-01-19T04:07:31.752Z,85.83
2023-01-19T04:10:34.605Z,86.07
2023-01-19T04:13:38.450Z,85.67
2023-01-19T04:16:41.248Z,86.34
2023-01-19T04:19:45.199Z,85.31
2023-01-19T04:22:49.098Z,85.78
2023-01-19T04:26:00.579Z,86.05
2023-01-19T04:29:03.450Z,86.05
2023-01-19T04:32:06.245Z,86.27
2023-01-19T04:35:09.560Z,86.09
2023-01-19T04:38:12.441Z,86.08
2023-01-19T04:41:15.238Z,85.73
2023-01-19T04:44:18.165Z,85.53
2023-01-19T04:47:20.962Z,84.61
2023-01-19T04:50:23.746Z,83.60
2023-01-19T04:53:26.517Z,84.63
2023-01-19T04:56:29.695Z,84.05
2023-01-19T04:59:32.510Z,82.91
2023-01-19T05:02:35.615Z,83.46
2023-01-19T05:05:38.517Z,83.72
2023-01-19T05:08:41.703Z,83.95
2023-01-19T05:11:44.631Z,82.01
2023-01-19T05:14:47.456Z,82.65
2023-01-19T05:17:50.398Z,82.84
2023-01-19T05:20:53.197Z,82.43
2023-01-19T05:23:56.085Z,82.63
2023-01-19T05:26:59.501Z,83.29
2023-01-19T05:30:02.261Z,83.60
2023-01-19T05:33:05.529Z,83.31
2023-01-19T05:36:08.513Z,83.66
2023-01-19T05:39:11.471Z,84.02
2023-01-19T05:42:14.327Z,84.30
2023-01-19T05:45:17.273Z,83.28
2023-01-19T05:48:20.072Z,83.34
2023-01-19T05:51:22.867Z,83.63
2023-01-19T05:54:25.691Z,84.12
2023-01-19T05:57:28.443Z,84.01
2023-01-19T06:00:31.233Z,84.29
2023-01-19T06:03:35.695Z,82.93
2023-01-19T06:06:38.311Z,83.10
2023-01-19T06:09:41.369Z,83.06
2023-01-19T06:12:44.065Z,83.04
2023-01-19T06:15:47.379Z,80.98
2023-01-19T06:18:50.101Z,80.73
2023-01-19T06:21:53.228Z,81.60
2023-01-19T06:24:55.768Z,81.55
2023-01-19T06:27:58.863Z,81.83
2023-01-19T06:31:01.893Z,81.93
2023-01-19T06:34:05.101Z,82.24
2023-01-19T06:37:07.641Z,82.96
2023-01-19T06:40:13.643Z,82.90
2023-01-19T06:43:17.031Z,82.78
2023-01-19T06:46:20.120Z,81.46
2023-01-19T06:49:22.644Z,80.90
2023-01-19T06:52:25.826Z,81.95
2023-01-19T06:55:28.427Z,82.30
2023-01-19T06:58:32.077Z,82.27
2023-01-19T07:01:35.590Z,81.14
2023-01-19T07:04:38.913Z,81.64
2023-01-19T07:07:43.252Z,82.00
2023-01-19T07:11:23.657Z,81.92
2023-01-19T07:14:08.981Z,81.81
2023-01-19T07:17:12.872Z,81.34
2023-01-19T07:20:15.567Z,81.17
2023-01-19T07:23:18.638Z,81.49
2023-01-19T07:26:22.097Z,81.06
2023-01-19T07:29:25.872Z,81.25
2023-01-19T07:32:29.237Z,81.61
2023-01-19T07:35:32.680Z,80.75
2023-01-19T07:38:35.206Z,81.38
2023-01-19T07:41:38.485Z,80.95
2023-01-19T07:44:41.225Z,80.98
2023-01-19T07:47:45.420Z,81.34
2023-01-19T07:50:48.436Z,80.87
2023-01-19T07:53:51.524Z,80.26
2023-01-19T07:56:55.035Z,80.88
2023-01-19T07:59:58.269Z,80.50
2023-01-19T08:03:02.044Z,80.98
2023-01-19T08:06:06.777Z,80.78
2023-01-19T08:09:10.046Z,81.32
2023-01-19T08:12:13.162Z,80.61
2023-01-19T08:15:15.987Z,80.30
2023-01-19T08:18:19.101Z,80.03
2023-01-19T08:21:21.556Z,80.57
2023-01-19T08:24:29.235Z,79.37
2023-01-19T08:27:31.847Z,79.64
2023-01-19T08:30:35.820Z,78.39
2023-01-19T08:33:38.387Z,78.51
2023-01-19T08:36:41.524Z,78.60
2023-01-19T08:39:44.024Z,78.88
2023-01-19T08:42:47.125Z,79.64
2023-01-19T08:45:53.682Z,80.12
2023-01-19T08:48:56.973Z,80.34
2023-01-19T08:51:59.564Z,79.40
2023-01-19T08:55:02.751Z,79.17
2023-01-19T08:58:07.921Z,79.28
2023-01-19T09:01:17.063Z,79.68
2023-01-19T09:04:19.840Z,80.31
2023-01-19T09:07:23.030Z,79.87
2023-01-19T09:10:25.525Z,80.43
2023-01-19T09:13:28.874Z,81.16
2023-01-19T09:16:31.473Z,80.39
2023-01-19T09:19:35.146Z,80.11
2023-01-19T09:22:39.689Z,80.77
2023-01-19T09:25:45.229Z,80.74
2023-01-19T09:28:48.041Z,80.66
2023-01-19T09:31:51.315Z,80.78
2023-01-19T09:34:55.105Z,81.37
2023-01-19T09:37:59.194Z,82.05
2023-01-19T09:41:02.034Z,81.80
2023-01-19T09:44:05.544Z,81.63
2023-01-19T09:47:15.302Z,80.70
2023-01-19T09:50:28.710Z,80.63
2023-01-19T09:53:59.588Z,80.76
2023-01-19T09:57:02.952Z,80.63
2023-01-19T10:00:16.085Z,80.43
2023-01-19T10:03:20.845Z,81.18
2023-01-19T10:06:23.606Z,81.43
2023-01-19T10:09:56.029Z,80.88
2023-01-19T10:13:08.249Z,80.99
2023-01-19T10:16:25.665Z,81.63
2023-01-19T10:19:43.724Z,81.38
2023-01-19T10:22:49.803Z,81.66
2023-01-19T10:25:53.069Z,80.97
2023-01-19T10:29:02.948Z,80.21
2023-01-19T10:32:17.437Z,80.33
2023-01-19T10:35:25.760Z,80.99
2023-01-19T10:38:30.428Z,80.94
2023-01-19T10:41:42.665Z,80.90
2023-01-19T10:44:46.035Z,80.12
2023-01-19T10:47:49.804Z,80.75
2023-01-19T10:51:03.065Z,81.61
2023-01-19T10:54:13.196Z,81.94
2023-01-19T10:57:28.054Z,82.25
2023-01-19T11:00:38.812Z,81.03
2023-01-19T11:03:41.725Z,81.23
2023-01-19T11:06:44.843Z,81.38
2023-01-19T11:09:48.636Z,81.48
2023-01-19T11:12:55.605Z,81.64
2023-01-19T11:16:05.350Z,80.90
2023-01-19T11:19:21.779Z,81.34
2023-01-19T11:22:33.212Z,80.24
2023-01-19T11:25:37.267Z,79.96
2023-01-19T11:28:44.797Z,79.64
2023-01-19T11:31:49.253Z,79.62
2023-01-19T11:34:51.854Z,79.16
2023-01-19T11:38:11.661Z,78.43
2023-01-19T11:41:24.779Z,78.64
2023-01-19T11:44:32.692Z,79.22
2023-01-19T11:47:49.719Z,79.60
2023-01-19T11:50:54.550Z,79.98
2023-01-19T11:53:57.262Z,78.64
2023-01-19T12:00:17.532Z,78.17
2023-01-19T12:03:39.645Z,78.69
2023-01-19T12:06:47.837Z,78.52
2023-01-19T12:10:01.126Z,77.76
2023-01-19T12:13:04.334Z,77.79
2023-01-19T12:16:13.726Z,78.22
2023-01-19T12:19:22.462Z,78.34
2023-01-19T12:22:29.120Z,78.19
2023-01-19T12:25:40.613Z,77.80
2023-01-19T12:28:47.352Z,79.15
2023-01-19T12:32:14.900Z,79.40
2023-01-19T12:36:00.912Z,80.10
2023-01-19T12:39:16.901Z,80.06
2023-01-19T12:42:21.466Z,78.59
2023-01-19T12:45:29.369Z,79.83
2023-01-19T12:48:32.952Z,79.25
2023-01-19T12:51:36.918Z,78.89
2023-01-19T12:54:49.546Z,80.03
2023-01-19T12:58:00.956Z,79.78
2023-01-19T13:01:19.980Z,79.79
2023-01-19T13:04:33.962Z,80.12
2023-01-19T13:08:02.287Z,79.59
2023-01-19T13:11:10.785Z,80.02
2023-01-19T13:14:36.976Z,79.96
2023-01-19T13:17:51.154Z,79.93
2023-01-19T13:21:04.588Z,80.07
2023-01-19T13:24:10.588Z,79.99
2023-01-19T13:27:14.008Z,78.65
2023-01-19T13:30:27.643Z,78.95
2023-01-19T13:33:40.860Z,77.74
2023-01-19T13:36:51.733Z,78.20
2023-01-19T13:39:55.699Z,77.71
2023-01-19T13:42:59.528Z,78.17
2023-01-19T13:46:04.252Z,77.49
2023-01-19T13:49:26.238Z,78.19
2023-01-19T13:52:29.725Z,77.22
2023-01-19T13:55:32.334Z,76.37
2023-01-19T13:58:35.654Z,76.71
2023-01-19T14:01:41.154Z,77.05
2023-01-19T14:04:44.558Z,76.19
2023-01-19T14:07:47.473Z,76.75
2023-01-19T14:10:56.524Z,77.93
2023-01-19T14:13:59.253Z,77.40
2023-01-19T14:17:02.571Z,77.58
2023-01-19T14:20:05.773Z,78.56
2023-01-19T14:23:40.830Z,79.01
2023-01-19T14:26:48.433Z,78.79
2023-01-19T14:29:54.875Z,77.60
2023-01-19T14:32:57.429Z,76.80
2023-01-19T14:36:20.096Z,77.32
2023-01-19T14:39:26.382Z,76.54
2023-01-19T14:42:35.861Z,77.40
2023-01-19T14:45:41.382Z,76.67
2023-01-19T14:48:49.172Z,76.06
2023-01-19T14:51:52.153Z,76.29
2023-01-19T14:54:56.125Z,75.65
2023-01-19T14:57:58.625Z,75.82
2023-01-19T15:01:02.722Z,76.66
2023-01-19T15:04:05.338Z,76.00
2023-01-19T15:07:17.084Z,75.94
2023-01-19T15:10:22.630Z,76.14
2023-01-19T15:13:27.510Z,76.26
2023-01-19T15:16:34.189Z,77.70
2023-01-19T15:19:37.435Z,77.96
2023-01-19T15:22:40.105Z,77.08
2023-01-19T15:25:43.239Z,77.02
2023-01-19T15:28:47.008Z,78.37
2023-01-19T15:31:50.917Z,78.60
2023-01-19T15:34:53.646Z,78.98
2023-01-19T15:37:56.857Z,78.23
2023-01-19T15:40:59.720Z,78.13
2023-01-19T15:44:05.051Z,77.45
2023-01-19T15:47:07.622Z,78.06
2023-01-19T15:50:11.242Z,78.26
2023-01-19T15:53:19.381Z,78.62
2023-01-19T15:56:28.425Z,78.16
2023-01-19T15:59:31.061Z,78.36
2023-01-19T16:02:34.259Z,77.73
2023-01-19T16:05:42.981Z,77.50
2023-01-19T16:08:46.241Z,77.29
2023-01-19T16:11:49.317Z,77.72
2023-01-19T16:14:52.224Z,77.13
2023-01-19T16:17:55.148Z,78.33
2023-01-19T16:20:58.204Z,76.95
2023-01-19T16:24:01.041Z,76.97
2023-01-19T16:27:04.114Z,77.95
2023-01-19T16:30:07.749Z,77.82
2023-01-19T16:33:11.757Z,78.05
2023-01-19T16:36:19.940Z,77.98
2023-01-19T16:39:22.974Z,78.13
2023-01-19T16:42:26.042Z,78.23
2023-01-19T16:45:28.863Z,78.76
2023-01-19T16:48:34.972Z,79.10
2023-01-19T16:51:38.510Z,78.98
2023-01-19T16:54:43.100Z,79.33
2023-01-19T16:57:45.986Z,78.18
2023-01-19T17:00:49.085Z,78.03
2023-01-19T17:03:52.140Z,78.77
2023-01-19T17:06:55.507Z,79.10
2023-01-19T17:09:58.880Z,79.25
2023-01-19T17:13:03.986Z,78.18
2023-01-19T17:16:07.705Z,77.61
2023-01-19T17:19:15.669Z,77.44
2023-01-19T17:22:21.430Z,77.10
2023-01-19T17:25:24.305Z,77.35
2023-01-19T17:28:27.671Z,77.25
2023-01-19T17:31:32.260Z,77.27
2023-01-19T17:34:35.254Z,76.75
2023-01-19T17:37:38.075Z,76.68
2023-01-19T17:40:41.022Z,77.10
2023-01-19T17:43:44.590Z,77.77
2023-01-19T17:46:47.472Z,77.98
2023-01-19T17:49:50.367Z,77.42
2023-01-19T17:52:53.185Z,77.88
2023-01-19T17:55:55.953Z,76.76
2023-01-19T17:58:59.397Z,77.27
2023-01-19T18:02:02.183Z,76.30
2023-01-19T18:05:05.719Z,77.42
2023-01-19T18:08:08.497Z,76.90
2023-01-19T18:11:13.342Z,76.58
2023-01-19T18:14:16.048Z,77.46
2023-01-19T18:17:19.668Z,77.40
2023-01-19T18:20:22.194Z,78.29
2023-01-19T18:23:25.813Z,77.69
2023-01-19T18:26:29.310Z,77.63
2023-01-19T18:29:32.518Z,77.13
2023-01-19T18:32:36.105Z,76.54
2023-01-19T18:35:39.633Z,76.64
2023-01-19T18:38:42.763Z,77.22
2023-01-19T18:41:45.844Z,77.15
2023-01-19T18:44:48.419Z,77.42
2023-01-19T18:47:51.531Z,76.79
2023-01-19T18:50:54.260Z,76.58
2023-01-19T18:53:58.694Z,76.50
2023-01-19T18:57:01.271Z,76.79
2023-01-19T19:00:05.877Z,76.34
2023-01-19T19:03:10.373Z,76.87
2023-01-19T19:06:14.692Z,76.25
2023-01-19T19:09:17.254Z,76.27
2023-01-19T19:12:20.986Z,75.56
2023-01-19T19:15:23.937Z,75.78
2023-01-19T19:18:26.880Z,76.61
2023-01-19T19:21:29.393Z,77.05
2023-01-19T19:24:32.660Z,76.50
2023-01-19T19:27:35.693Z,75.97
2023-01-19T19:30:39.314Z,76.60
2023-01-19T19:33:42.017Z,76.81
2023-01-19T19:36:45.245Z,76.48
2023-01-19T19:39:48.145Z,77.21
2023-01-19T19:42:51.151Z,77.66
2023-01-19T19:46:01.223Z,77.82
2023-01-19T19:49:04.417Z,77.86
2023-01-19T19:52:06.999Z,76.75
2023-01-19T19:55:10.971Z,77.15
2023-01-19T19:58:13.532Z,77.11
2023-01-19T20:01:24.131Z,76.73
2023-01-19T20:04:28.981Z,76.85
2023-01-19T20:07:32.013Z,76.51
2023-01-19T20:10:34.946Z,76.24
2023-01-19T20:13:39.204Z,76.89
2023-01-19T20:16:43.074Z,76.01
2023-01-19T20:19:47.640Z,75.80
2023-01-19T20:22:50.465Z,75.30
2023-01-19T20:25:53.295Z,75.83
2023-01-19T20:29:03.013Z,74.95
2023-01-19T20:32:07.985Z,75.75
2023-01-19T20:35:11.274Z,75.39
2023-01-19T20:38:14.181Z,75.74
2023-01-19T20:41:17.769Z,75.22
2023-01-19T20:44:23.125Z,74.96
2023-01-19T20:47:25.956Z,75.94
2023-01-19T20:50:28.894Z,75.60
2023-01-19T20:53:32.169Z,75.60
2023-01-19T20:56:35.115Z,76.52
2023-01-19T20:59:38.918Z,76.33
2023-01-19T21:02:41.785Z,77.20
2023-01-19T21:05:48.492Z,76.70
2023-01-19T21:08:51.911Z,76.52
2023-01-19T21:11:57.299Z,76.60
2023-01-19T21:15:00.546Z,75.80
2023-01-19T21:18:03.741Z,76.06
2023-01-19T21:21:09.108Z,76.42
2023-01-19T21:24:13.827Z,76.66
2023-01-19T21:27:16.712Z,77.32
2023-01-19T21:30:19.730Z,77.15
2023-01-19T21:33:22.944Z,77.11
2023-01-19T21:36:26.302Z,76.90
2023-01-19T21:39:29.137Z,76.01
2023-01-19T21:42:31.940Z,76.01
2023-01-19T21:45:34.778Z,76.88
2023-01-19T21:48:37.760Z,77.16
2023-01-19T21:51:40.609Z,77.54
2023-01-19T21:54:43.681Z,76.77
2023-01-19T21:57:46.553Z,77.31
2023-01-19T22:00:50.334Z,77.18
2023-01-19T22:03:57.548Z,77.14
2023-01-19T22:07:00.111Z,77.54
2023-01-19T22:10:04.315Z,77.68
2023-01-19T22:13:07.739Z,77.58
2023-01-19T22:16:14.351Z,77.69
2023-01-19T22:19:17.037Z,77.73
2023-01-19T22:22:20.202Z,77.39
2023-01-19T22:25:27.775Z,77.34
2023-01-19T22:28:31.304Z,77.20
2023-01-19T22:31:34.037Z,76.94
2023-01-19T22:34:37.228Z,77.07
2023-01-19T22:37:39.757Z,76.61
2023-01-19T22:40:42.860Z,75.64
2023-01-19T22:43:45.757Z,75.35
2023-01-19T22:46:49.903Z,76.65
2023-01-19T22:49:52.641Z,76.83
2023-01-19T22:52:55.864Z,76.59
2023-01-19T22:55:58.353Z,76.36
2023-01-19T22:59:07.873Z,76.46
2023-01-19T23:02:12.369Z,76.24
2023-01-19T23:05:15.985Z,76.22
2023-01-19T23:08:18.716Z,76.38
2023-01-19T23:11:24.793Z,75.77
2023-01-19T23:14:27.324Z,76.27
2023-01-19T23:17:30.396Z,76.21
2023-01-19T23:20:32.928Z,76.01
2023-01-19T23:23:36.377Z,75.46
2023-01-19T23:26:39.467Z,76.56
2023-01-19T23:29:42.696Z,76.88
2023-01-19T23:32:49.714Z,76.47
2023-01-19T23:35:55.545Z,75.58
2023-01-19T23:39:01.221Z,75.33
2023-01-19T23:42:05.155Z,75.64
2023-01-19T23:45:08.399Z,75.23
2023-01-19T23:48:11.476Z,76.06
2023-01-19T23:51:25.561Z,75.91
2023-01-19T23:54:28.743Z,75.46
2023-01-19T23:57:31.268Z,74.68
